createdAt,value
2018-07-19T19:07:22.645Z,5.33
2018-07-19T19:09:50.839Z,4.90
2018-07-19T19:12:18.992Z,4.43
2018-07-19T19:14:47.143Z,4.40
2018-07-19T19:17:15.316Z,5.07
2018-07-19T19:19:43.465Z,5.70
2018-07-19T19:22:11.617Z,7.53
2018-07-19T19:24:39.854Z,6.97
2018-07-19T19:27:08.042Z,8.27
2018-07-19T19:29:36.185Z,7.70
2018-07-19T19:32:04.377Z,6.70
2018-07-19T19:34:32.555Z,7.17
2018-07-19T19:37:00.732Z,4.93
2018-07-19T19:39:28.888Z,4.90
2018-07-19T19:41:57.069Z,4.37
2018-07-19T19:44:25.250Z,5.20
2018-07-19T19:46:53.449Z,5.40
2018-07-19T19:49:21.638Z,5.07
2018-07-19T19:51:49.804Z,4.70
2018-07-19T19:54:18.042Z,4.40
2018-07-19T19:56:46.177Z,5.30
2018-07-19T19:59:14.354Z,4.90
2018-07-19T20:01:42.558Z,5.00
2018-07-19T20:04:11.555Z,5.00
2018-07-19T20:06:41.288Z,5.73
2018-07-19T20:09:10.577Z,4.03
2018-07-19T20:11:38.825Z,4.57
2018-07-19T20:14:07.019Z,5.17
2018-07-19T20:16:35.245Z,4.63
2018-07-19T20:19:03.421Z,4.70
2018-07-19T20:21:31.711Z,4.80
2018-07-19T20:24:00.013Z,4.63
2018-07-19T20:26:28.225Z,5.33
2018-07-19T20:28:56.418Z,6.07
2018-07-19T20:31:24.836Z,5.70
2018-07-19T20:33:53.113Z,5.30
2018-07-19T20:36:21.291Z,4.90
2018-07-19T20:38:49.569Z,5.37
2018-07-19T20:41:17.765Z,5.43
2018-07-19T20:43:45.974Z,4.73
2018-07-19T20:46:14.149Z,4.53
2018-07-19T20:48:42.350Z,5.40
2018-07-19T20:51:10.592Z,5.00
2018-07-19T20:53:38.813Z,5.17
2018-07-19T20:56:06.975Z,5.07
2018-07-19T20:58:35.179Z,4.97
2018-07-19T21:01:03.583Z,5.13
2018-07-19T21:03:31.764Z,5.00
2018-07-19T21:05:59.948Z,5.23
2018-07-19T21:08:28.131Z,5.63
2018-07-19T21:10:56.305Z,5.03
2018-07-19T21:13:24.456Z,5.60
2018-07-19T21:15:52.609Z,5.13
2018-07-19T21:18:20.799Z,5.67
2018-07-19T21:20:48.957Z,5.47
2018-07-19T21:23:17.113Z,4.70
2018-07-19T21:25:45.277Z,4.83
2018-07-19T21:28:13.443Z,5.20
2018-07-19T21:30:41.620Z,5.20
2018-07-19T21:33:09.791Z,4.90
2018-07-19T21:35:38.527Z,5.17
2018-07-19T21:38:06.680Z,5.13
2018-07-19T21:40:34.843Z,6.47
2018-07-19T21:43:03.036Z,4.63
2018-07-19T21:45:31.193Z,4.63
2018-07-19T21:47:59.378Z,5.97
2018-07-19T21:50:27.568Z,4.97
2018-07-19T21:52:55.861Z,5.83
2018-07-19T21:55:24.015Z,5.03
2018-07-19T21:57:52.280Z,6.20
2018-07-19T22:00:20.433Z,6.03
2018-07-19T22:02:48.599Z,4.63
2018-07-19T22:05:16.761Z,6.00
2018-07-19T22:07:44.952Z,6.13
2018-07-19T22:10:13.121Z,6.40
2018-07-19T22:12:41.283Z,6.40
2018-07-19T22:15:10.269Z,5.80
2018-07-19T22:17:38.459Z,5.23
2018-07-19T22:20:06.652Z,4.93
2018-07-19T22:22:34.807Z,6.30
2018-07-19T22:25:04.006Z,5.27
2018-07-19T22:27:32.197Z,5.70
2018-07-19T22:30:00.369Z,5.50
2018-07-19T22:32:28.557Z,6.07
2018-07-19T22:34:56.825Z,5.90
2018-07-19T22:37:24.974Z,5.30
2018-07-19T22:39:53.125Z,5.10
2018-07-19T22:42:22.106Z,6.10
2018-07-19T22:44:50.245Z,6.00
2018-07-19T22:47:18.425Z,6.03
2018-07-19T22:49:46.569Z,5.37
2018-07-19T22:52:14.734Z,5.40
2018-07-19T22:54:42.893Z,5.87
2018-07-19T22:57:11.080Z,5.53
2018-07-19T22:59:39.236Z,5.40
2018-07-19T23:02:07.398Z,5.83
2018-07-19T23:04:35.552Z,6.10
2018-07-19T23:07:03.713Z,6.00
2018-07-19T23:09:31.858Z,6.97
2018-07-19T23:12:00.026Z,5.43
2018-07-19T23:14:28.197Z,6.00
2018-07-19T23:16:56.350Z,5.77
2018-07-19T23:19:24.496Z,5.90
2018-07-19T23:21:52.688Z,5.73
2018-07-19T23:24:20.847Z,6.17
2018-07-19T23:26:49.008Z,5.93
2018-07-19T23:29:17.153Z,6.07
2018-07-19T23:31:45.325Z,7.00
2018-07-19T23:34:13.467Z,6.27
2018-07-19T23:36:46.321Z,6.60
2018-07-19T23:39:19.008Z,6.60
2018-07-19T23:41:51.597Z,6.77
2018-07-19T23:44:25.154Z,6.33
2018-07-19T23:46:57.031Z,6.20
2018-07-19T23:49:25.188Z,6.57
2018-07-19T23:51:53.356Z,8.20
2018-07-19T23:54:21.511Z,7.30
2018-07-19T23:56:49.665Z,7.53
2018-07-19T23:59:17.830Z,8.27
